Portada
METAR-TAF:

METAR-TAF

Aeroports :

Dundee, Escòcia

latitud: 56-27N, longitud: 003-01W, altitud: 4 m

Observació

L'informe es va fer fa 15 minuts, a les 10:50 UTC
Vent 7 kt del Est/Sud-Est
Temperatura 8°C
Humitat 87%
Pressió 1030 hPa
Visibilitat: 9000 m
Escasses núvols a una alçada de 1100 ft
Cel ennuvolat a una alçada de 2000 ft
xàfecs en les proximitats

METAR: EGPN 091050Z 11007KT 9000 VCSH FEW011 BKN020 08/06 Q1030

Hora: 12:05 (11:05 UTC)

Pronòstic

L'informe es va fer fa 29 minuts, a les 10:36 UTC
Pronòstic vàlid del 09 a les 10 UTC al 09 a les 18 UTC
Vent 8 kt del Est
Visibilitat 10 km o més
Escasses núvols a una alçada de 1200 ft
Cel ennuvolat a una alçada de 1800 ft
Temporalment
l' 09 a les 10 UTC al 09 a les 18 UTC
Cel ennuvolat a una alçada de 1400 ft
Probabilitat 30% :
Temporalment
l' 09 a les 10 UTC al 09 a les 18 UTC
Visibilitat: 5000 m
pluja, plugim

TAF: EGPN 091036Z 0910/0918 10008KT 9999 FEW012 BKN018 TEMPO 0910/0918 BKN014 PROB30 TEMPO 0910/0918 5000 -RADZ

Observacions i pronòstics meteorològics de més de 4000 aeroports (METAR i TAF).

Les estacions disponibles són els punts grocs i vermells al mapa.

Posi el ratolí al punt desitjat per veure el nom de l'estació.

Feu clic per veure les observacions i els pronòstics meteorològics.

Per canviar el mapa: feu clic els botons verds amb una creu de color negre per apropar; al botó verd amb un guió per allunyar la imatge; o en les fletxes verdes per a mapes adjacents.


METAR-TAF: